Time;durP1;ratioP1;P1;durP2;ratioP2;P2;SDS_P1;SDS_P2;PMS_P1;PMS_P2;Temp;Humidity;BMP_temperature;BMP_pressure;BME280_temperature;BME280_humidity;BME280_pressure;Samples;Min_cycle;Max_cycle;Signal;HPM_P1;HPM_P2
2021/08/29 00:02:32;;;;;;;6.57;3.20;;;;;;;8.42;89.74;90909.88;4998516;28;20037;-85
2021/08/29 00:05:11;;;;;;;7.18;3.20;;;;;;;8.36;90.06;90915.19;4998875;28;20033;-86
2021/08/29 00:07:48;;;;;;;4.15;2.80;;;;;;;8.36;89.55;90906.66;4999375;28;20022;-85
2021/08/29 00:10:24;;;;;;;8.40;3.03;;;;;;;8.33;89.76;90902.06;4997544;28;20034;-85
2021/08/29 00:12:58;;;;;;;4.65;2.70;;;;;;;8.46;89.34;90895.94;4983276;28;20033;-85
2021/08/29 00:15:36;;;;;;;3.20;2.58;;;;;;;8.53;88.42;90882.44;4983122;28;20022;-84
2021/08/29 00:18:09;;;;;;;4.40;2.85;;;;;;;8.48;89.10;90883.41;5015676;28;20044;-85
2021/08/29 00:20:45;;;;;;;6.82;3.03;;;;;;;8.29;89.26;90881.16;4997824;28;20033;-85
2021/08/29 00:23:25;;;;;;;5.55;3.55;;;;;;;8.13;90.13;90877.63;4978339;28;20026;-85
2021/08/29 00:26:03;;;;;;;5.82;3.20;;;;;;;8.10;90.41;90870.44;4994562;28;20029;-85
2021/08/29 00:28:43;;;;;;;5.05;3.30;;;;;;;8.54;88.75;90869.13;4977899;28;20101;-85
2021/08/29 00:31:16;;;;;;;7.72;3.28;;;;;;;8.54;88.67;90874.31;4976493;28;20022;-83
2021/08/29 00:33:56;;;;;;;6.88;3.22;;;;;;;8.74;87.72;90880.63;4977927;28;20394;-85
2021/08/29 00:36:37;;;;;;;5.18;3.20;;;;;;;8.36;89.58;90875.50;4977390;28;20026;-85
2021/08/29 00:39:12;;;;;;;5.18;3.38;;;;;;;8.26;90.33;90878.44;4976903;28;20041;-85
2021/08/29 00:41:54;;;;;;;4.85;3.30;;;;;;;8.21;90.75;90886.44;4960833;28;20031;-85
2021/08/29 00:44:27;;;;;;;4.57;2.80;;;;;;;8.25;90.79;90889.91;4977380;28;20116;-85
2021/08/29 00:46:59;;;;;;;4.70;3.53;;;;;;;8.19;90.72;90889.31;4978139;28;20026;-85
2021/08/29 00:49:30;;;;;;;5.22;3.22;;;;;;;8.29;90.80;90870.03;4977613;28;20037;-86
2021/08/29 00:52:06;;;;;;;4.22;2.95;;;;;;;8.45;89.57;90865.84;4988744;28;20049;-85
2021/08/29 00:54:42;;;;;;;5.35;2.88;;;;;;;8.73;88.62;90867.97;4997890;28;20022;-84
2021/08/29 00:57:14;;;;;;;5.82;2.25;;;;;;;8.59;88.62;90861.16;4981402;28;20022;-86
2021/08/29 00:59:53;;;;;;;4.07;2.85;;;;;;;8.55;88.87;90865.47;4965731;28;20026;-86
2021/08/29 01:02:35;;;;;;;4.20;2.70;;;;;;;8.36;89.18;90859.91;4997632;28;20057;-85
2021/08/29 01:05:14;;;;;;;4.15;2.70;;;;;;;8.35;89.37;90858.41;4982776;28;20073;-86
2021/08/29 01:08:10;;;;;;;4.18;2.90;;;;;;;8.28;90.67;90855.53;4984886;28;20517;-85
2021/08/29 01:10:50;;;;;;;5.18;3.22;;;;;;;8.23;90.73;90850.50;4996616;28;20096;-84
2021/08/29 01:13:30;;;;;;;4.28;2.72;;;;;;;8.24;90.55;90862.44;4981329;28;20026;-85
2021/08/29 01:16:08;;;;;;;3.63;2.60;;;;;;;8.36;90.05;90859.91;4998520;28;20112;-85
2021/08/29 01:18:45;;;;;;;5.40;2.75;;;;;;;8.27;90.36;90857.38;4998157;28;20045;-86
2021/08/29 01:21:24;;;;;;;5.10;3.33;;;;;;;8.17;90.79;90873.31;4997978;28;20026;-86
2021/08/29 01:24:04;;;;;;;5.15;3.30;;;;;;;8.20;90.49;90872.69;4966181;28;20064;-86
2021/08/29 01:26:57;;;;;;;8.05;3.92;;;;;;;8.24;90.38;90876.16;4966016;28;20116;-85
2021/08/29 01:29:30;;;;;;;6.07;3.25;;;;;;;8.26;90.56;90871.41;4997644;28;20029;-85
2021/08/29 01:32:04;;;;;;;4.75;3.38;;;;;;;8.28;90.27;90871.88;4997747;28;20021;-85
2021/08/29 01:34:37;;;;;;;3.63;2.65;;;;;;;8.29;90.19;90859.66;4982253;28;20056;-88
2021/08/29 01:37:12;;;;;;;3.72;2.38;;;;;;;8.33;89.80;90861.28;4988191;28;20034;-85
2021/08/29 01:39:52;;;;;;;6.25;2.85;;;;;;;8.31;89.07;90857.50;4979991;28;20014;-87
2021/08/29 01:42:30;;;;;;;4.22;2.70;;;;;;;8.28;89.60;90863.31;4964868;28;20034;-85
2021/08/29 01:45:07;;;;;;;5.63;2.80;;;;;;;8.22;89.68;90856.78;4964364;28;20494;-87
2021/08/29 01:47:43;;;;;;;4.05;2.65;;;;;;;8.18;90.29;90864.44;4950930;28;20085;-86
2021/08/29 01:50:18;;;;;;;3.53;2.50;;;;;;;8.40;90.10;90860.81;4999146;28;20022;-86
2021/08/29 01:52:51;;;;;;;5.50;2.50;;;;;;;8.27;90.26;90866.97;4984507;28;20462;-86
2021/08/29 01:55:28;;;;;;;5.75;3.10;;;;;;;8.37;89.28;90866.63;4984079;28;20133;-85
2021/08/29 01:58:08;;;;;;;5.20;2.80;;;;;;;8.27;89.79;90866.97;4971278;28;20117;-85
2021/08/29 02:01:15;;;;;;;7.03;2.90;;;;;;;8.22;90.69;90859.38;4984518;28;20482;-87
2021/08/29 02:03:50;;;;;;;4.68;2.92;;;;;;;8.18;90.03;90861.09;4982530;28;20037;-85
2021/08/29 02:06:43;;;;;;;6.88;2.55;;;;;;;8.20;89.57;90861.50;4995987;28;20022;-84
2021/08/29 02:09:17;;;;;;;4.35;2.80;;;;;;;8.29;88.93;90849.25;4980741;28;20117;-84
2021/08/29 02:11:59;;;;;;;4.88;2.88;;;;;;;8.25;88.80;90848.38;4994709;28;20033;-85
2021/08/29 02:14:41;;;;;;;5.70;2.80;;;;;;;8.11;89.06;90853.78;4979284;28;20033;-85
2021/08/29 02:17:18;;;;;;;4.07;2.50;;;;;;;8.05;89.76;90853.19;4971990;28;20129;-85
2021/08/29 02:19:51;;;;;;;7.78;3.33;;;;;;;8.02;90.98;90855.66;4963537;28;20038;-84
2021/08/29 02:22:32;;;;;;;5.15;3.15;;;;;;;8.23;90.46;90856.47;4963328;28;20030;-85
2021/08/29 02:25:05;;;;;;;5.43;2.83;;;;;;;8.20;90.08;90857.09;4980310;28;20028;-85
2021/08/29 02:27:39;;;;;;;4.75;2.35;;;;;;;8.10;89.78;90862.66;4983021;28;20065;-85
2021/08/29 02:30:14;;;;;;;6.88;3.42;;;;;;;8.09;89.22;90851.53;4982836;28;20104;-86
2021/08/29 02:32:52;;;;;;;;;;;;;;;8.05;89.20;90842.81;4977218;28;20089;-87
2021/08/29 02:35:29;;;;;;;4.32;2.70;;;;;;;8.11;89.10;90851.19;4992488;28;19917;-85
2021/08/29 02:38:07;;;;;;;4.18;2.53;;;;;;;8.04;89.16;90841.31;4969840;28;20021;-85
2021/08/29 02:40:47;;;;;;;3.63;2.30;;;;;;;7.96;89.52;90841.34;4984498;28;20022;-85
2021/08/29 02:43:24;;;;;;;4.05;2.60;;;;;;;7.96;89.02;90847.31;4969496;28;20436;-85
2021/08/29 02:46:02;;;;;;;9.55;2.63;;;;;;;7.96;89.32;90851.75;4969942;28;20449;-86
2021/08/29 02:48:39;;;;;;;3.08;2.22;;;;;;;8.15;88.53;90850.25;4949706;28;20026;-85
2021/08/29 02:51:14;;;;;;;4.05;2.72;;;;;;;8.06;88.14;90844.34;4966132;28;20027;-85
2021/08/29 02:53:52;;;;;;;6.47;3.35;;;;;;;7.83;89.63;90848.28;4981916;28;20465;-86
2021/08/29 02:56:29;;;;;;;4.95;2.97;;;;;;;7.72;90.21;90842.69;4966214;28;20025;-86
2021/08/29 02:59:07;;;;;;;5.85;3.25;;;;;;;7.63;89.93;90842.72;4966837;28;20037;-86
2021/08/29 03:01:45;;;;;;;4.45;3.25;;;;;;;7.81;89.26;90842.63;4965143;28;20030;-85
2021/08/29 03:04:25;;;;;;;4.57;2.72;;;;;;;7.80;88.86;90833.31;4965343;28;20030;-86
2021/08/29 03:07:08;;;;;;;5.45;2.88;;;;;;;7.86;88.14;90832.09;4966223;28;20558;-85
2021/08/29 03:09:48;;;;;;;3.70;2.38;;;;;;;7.77;88.23;90826.91;4964167;28;20038;-84
2021/08/29 03:12:23;;;;;;;3.97;2.53;;;;;;;7.65;88.43;90832.78;4950542;28;20475;-85
2021/08/29 03:15:02;;;;;;;3.50;2.38;;;;;;;7.58;89.56;90829.91;4980514;28;20035;-85
2021/08/29 03:17:32;;;;;;;4.78;2.60;;;;;;;7.44;90.25;90831.94;4965849;28;20030;-84
2021/08/29 03:20:17;;;;;;;5.15;2.30;;;;;;;7.45;90.25;90828.28;4965512;28;20030;-85
2021/08/29 03:22:49;;;;;;;;;;;;;;;7.34;89.48;90824.50;4983174;28;20022;-85
2021/08/29 03:25:27;;;;;;;3.45;2.30;;;;;;;7.39;89.36;90813.97;4997471;28;19933;-87
2021/08/29 03:28:00;;;;;;;4.40;2.70;;;;;;;7.31;89.31;90806.97;4981755;28;20037;-87
2021/08/29 03:30:38;;;;;;;3.78;2.53;;;;;;;7.24;89.40;90819.63;4998281;28;20022;-86
2021/08/29 03:33:15;;;;;;;4.85;2.45;;;;;;;7.25;89.47;90816.00;4966870;28;20121;-86
2021/08/29 03:35:54;;;;;;;4.20;2.35;;;;;;;7.22;89.85;90814.03;4983356;28;20030;-86
2021/08/29 03:38:33;;;;;;;3.35;2.35;;;;;;;7.25;90.18;90818.59;4951703;28;20022;-85
2021/08/29 03:41:11;;;;;;;3.60;2.30;;;;;;;7.33;90.09;90825.56;4971151;28;20049;-85
2021/08/29 03:43:44;;;;;;;4.20;2.75;;;;;;;7.24;89.70;90823.00;4987585;28;20124;-85
2021/08/29 03:46:24;;;;;;;3.80;2.63;;;;;;;7.17;90.16;90817.53;4971578;28;20029;-85
2021/08/29 03:49:05;;;;;;;5.60;2.80;;;;;;;7.08;90.41;90812.38;5002997;28;20025;-85
2021/08/29 03:51:34;;;;;;;5.90;3.47;;;;;;;7.12;90.60;90813.28;4984375;28;20057;-86
2021/08/29 03:54:15;;;;;;;5.15;3.20;;;;;;;7.17;90.97;90815.72;4984441;28;20030;-86
2021/08/29 03:56:54;;;;;;;5.32;3.13;;;;;;;7.27;91.26;90821.63;4970360;28;20406;-85
2021/08/29 03:59:34;;;;;;;5.60;2.55;;;;;;;7.34;90.24;90811.53;5001163;28;20112;-86
2021/08/29 04:02:08;;;;;;;4.95;2.60;;;;;;;7.46;90.01;90805.72;4969867;28;20586;-85
2021/08/29 04:04:44;;;;;;;5.43;2.50;;;;;;;7.68;88.78;90812.50;4985031;28;20617;-85
2021/08/29 04:07:26;;;;;;;5.32;2.33;;;;;;;7.45;90.17;90807.53;4985705;28;20037;-85
2021/08/29 04:10:01;;;;;;;7.88;2.47;;;;;;;7.40;90.77;90800.69;4967638;28;20434;-85
2021/08/29 04:12:38;;;;;;;4.55;3.03;;;;;;;7.42;90.90;90803.75;5068127;23;20049;-90
2021/08/29 04:15:11;;;;;;;4.13;2.60;;;;;;;7.51;90.65;90800.34;5021010;28;20127;-90
2021/08/29 04:17:49;;;;;;;3.35;2.42;;;;;;;7.53;90.48;90801.56;5021359;28;20025;-90
2021/08/29 04:20:26;;;;;;;5.38;2.25;;;;;;;7.52;90.55;90802.63;5020200;28;20447;-91
2021/08/29 04:23:04;;;;;;;6.32;2.90;;;;;;;7.48;91.00;90804.31;5016401;28;20121;-90
2021/08/29 04:25:42;;;;;;;5.25;2.55;;;;;;;7.50;90.59;90802.19;5016213;28;20493;-90
2021/08/29 04:28:21;;;;;;;6.88;3.00;;;;;;;7.44;89.92;90800.81;5016635;28;20497;-90
2021/08/29 04:30:54;;;;;;;6.22;3.15;;;;;;;7.23;90.70;90800.00;5015618;28;20029;-90
2021/08/29 04:33:34;;;;;;;6.10;2.45;;;;;;;7.22;91.04;90806.25;5016194;28;20030;-90
2021/08/29 04:36:10;;;;;;;6.70;3.08;;;;;;;7.27;90.92;90804.22;5015823;28;20029;-90
2021/08/29 04:38:44;;;;;;;6.78;2.95;;;;;;;7.36;90.80;90810.16;4996479;28;20050;-90
2021/08/29 04:41:21;;;;;;;;;;;;;;;7.40;91.14;90810.31;5013094;28;20032;-91
2021/08/29 04:44:00;;;;;;;4.80;2.65;;;;;;;7.54;91.13;90810.84;5012669;28;20297;-90
2021/08/29 04:46:38;;;;;;;5.43;3.10;;;;;;;7.61;91.24;90805.19;5012560;28;20482;-90
2021/08/29 04:49:14;;;;;;;4.05;2.80;;;;;;;7.60;91.10;90807.03;5011888;28;20548;-91
2021/08/29 04:51:52;;;;;;;8.40;3.00;;;;;;;7.68;90.43;90810.66;4996875;28;20101;-90
2021/08/29 04:54:30;;;;;;;5.70;2.90;;;;;;;7.71;90.57;90804.09;5012870;28;20025;-90
2021/08/29 04:57:07;;;;;;;4.18;3.03;;;;;;;7.69;90.81;90801.78;5012481;28;20030;-90
2021/08/29 04:59:44;;;;;;;5.13;2.63;;;;;;;7.86;90.91;90806.16;5012684;28;20397;-91
2021/08/29 05:02:19;;;;;;;4.13;2.67;;;;;;;7.97;89.53;90796.91;5012877;28;20030;-90
2021/08/29 05:04:57;;;;;;;6.00;2.33;;;;;;;7.88;89.78;90788.44;5012715;28;20087;-91
2021/08/29 05:07:34;;;;;;;2.58;2.00;;;;;;;7.88;90.00;90785.84;5011941;28;20034;-90
2021/08/29 05:10:06;;;;;;;3.42;2.42;;;;;;;7.89;90.09;90784.75;5011864;28;20497;-90
2021/08/29 05:12:34;;;;;;;3.50;2.30;;;;;;;7.86;90.36;90788.75;5011669;28;20065;-90
2021/08/29 05:15:14;;;;;;;5.45;2.65;;;;;;;7.96;90.01;90792.81;5012238;28;20022;-90
2021/08/29 05:17:46;;;;;;;3.47;2.35;;;;;;;8.01;90.23;90797.81;5011798;28;20077;-90
2021/08/29 05:20:26;;;;;;;5.47;2.42;;;;;;;8.09;90.55;90794.41;5012223;28;20030;-90
2021/08/29 05:23:04;;;;;;;4.00;2.60;;;;;;;8.18;90.50;90791.00;5015901;28;20025;-91
2021/08/29 05:25:44;;;;;;;5.03;2.75;;;;;;;8.04;90.39;90789.41;4984776;28;20036;-90
2021/08/29 05:28:13;;;;;;;4.53;2.35;;;;;;;8.13;90.44;90797.91;4984018;28;20033;-90
2021/08/29 05:30:41;;;;;;;4.97;2.75;;;;;;;8.12;90.36;90793.75;4982903;28;20022;-90
2021/08/29 05:33:14;;;;;;;3.33;2.35;;;;;;;8.18;90.46;90794.34;4983013;28;20026;-90
2021/08/29 05:35:53;;;;;;;4.50;2.90;;;;;;;8.38;89.74;90798.06;4983462;28;20029;-90
2021/08/29 05:38:33;;;;;;;3.33;2.38;;;;;;;8.29;90.18;90792.91;4983885;28;20057;-90
2021/08/29 05:41:07;;;;;;;4.68;2.83;;;;;;;8.30;91.00;90791.06;4984278;28;20048;-90
2021/08/29 05:43:44;;;;;;;5.38;2.72;;;;;;;8.47;88.10;90798.75;4999735;28;20493;-90
2021/08/29 05:46:24;;;;;;;4.15;2.38;;;;;;;8.78;86.33;90797.59;4983671;28;20101;-90
2021/08/29 05:49:02;;;;;;;5.03;2.45;;;;;;;8.78;87.53;90798.34;4983577;28;20056;-89
2021/08/29 05:51:36;;;;;;;4.88;2.72;;;;;;;8.84;87.02;90791.88;4999661;28;20029;-90
2021/08/29 05:54:10;;;;;;;3.53;2.45;;;;;;;8.82;87.99;90798.47;4983301;28;20052;-90
2021/08/29 05:56:44;;;;;;;4.65;2.55;;;;;;;8.90;87.19;90786.47;4983715;28;20033;-90
2021/08/29 05:59:18;;;;;;;4.40;2.50;;;;;;;8.87;88.85;90787.91;4982685;28;20025;-90
2021/08/29 06:01:57;;;;;;;4.97;2.38;;;;;;;9.05;88.31;90789.25;4982981;28;20037;-90
2021/08/29 06:04:36;;;;;;;3.15;2.13;;;;;;;9.13;86.38;90784.28;5001604;28;20033;-90
2021/08/29 06:07:14;;;;;;;3.85;2.45;;;;;;;9.13;87.55;90784.28;5000670;28;20021;-90
2021/08/29 06:09:46;;;;;;;5.57;2.35;;;;;;;9.35;87.39;90776.09;4999976;28;20052;-90
2021/08/29 06:12:22;;;;;;;3.90;2.40;;;;;;;9.39;87.59;90784.75;4983945;28;20037;-90
2021/08/29 06:15:00;;;;;;;4.90;2.30;;;;;;;9.37;87.42;90786.94;4984706;28;20032;-90
2021/08/29 06:17:36;;;;;;;3.38;2.15;;;;;;;9.33;87.30;90779.03;5004632;28;20029;-90
2021/08/29 06:20:13;;;;;;;6.43;2.08;;;;;;;9.72;84.54;90776.88;4999768;28;20464;-89
2021/08/29 06:22:44;;;;;;;2.95;1.90;;;;;;;9.61;84.25;90786.22;4983522;28;20087;-90
2021/08/29 06:25:19;;;;;;;3.55;1.90;;;;;;;9.54;85.92;90775.56;5003047;28;20028;-92
2021/08/29 06:28:00;;;;;;;3.38;1.50;;;;;;;9.72;85.47;90781.34;5025181;28;20110;-91
2021/08/29 06:30:37;;;;;;;4.00;2.08;;;;;;;9.81;85.51;90769.72;5017595;28;20034;-89
2021/08/29 06:33:12;;;;;;;2.67;1.63;;;;;;;9.94;85.45;90773.09;4983786;28;20029;-89
2021/08/29 06:35:49;;;;;;;4.72;1.50;;;;;;;10.06;84.35;90772.31;4983656;28;20029;-89
2021/08/29 06:38:29;;;;;;;1.75;1.30;;;;;;;9.97;85.75;90776.88;4983236;28;20112;-90
2021/08/29 06:41:08;;;;;;;2.17;1.50;;;;;;;10.01;86.71;90773.28;4998528;28;20017;-90
2021/08/29 06:43:47;;;;;;;2.50;1.58;;;;;;;9.89;87.77;90775.88;4999128;28;20409;-90
2021/08/29 06:46:26;;;;;;;2.40;1.40;;;;;;;10.13;86.54;90774.34;4998896;28;20029;-90
2021/08/29 06:49:03;;;;;;;1.73;1.08;;;;;;;10.00;86.20;90777.00;4999413;28;20453;-89
2021/08/29 06:51:41;;;;;;;2.60;1.15;;;;;;;9.99;87.11;90779.91;4998021;28;20430;-89
2021/08/29 06:54:15;;;;;;;1.80;1.10;;;;;;;9.67;88.22;90778.94;4999352;28;20056;-89
2021/08/29 06:56:52;;;;;;;2.20;1.00;;;;;;;9.58;89.21;90782.41;5016437;28;20022;-90
2021/08/29 06:59:28;;;;;;;1.40;0.95;;;;;;;9.86;87.96;90776.56;4985150;28;20029;-90
2021/08/29 07:01:54;;;;;;;1.40;0.80;;;;;;;9.87;88.54;90777.31;4999589;28;20025;-90
2021/08/29 07:04:30;;;;;;;2.85;0.90;;;;;;;9.88;87.48;90771.78;4981797;28;20048;-90
2021/08/29 07:07:08;;;;;;;1.25;0.80;;;;;;;9.99;86.41;90774.69;4983697;28;20112;-90
2021/08/29 07:09:43;;;;;;;1.60;0.80;;;;;;;10.10;87.63;90775.75;4982884;28;20108;-89
2021/08/29 07:12:17;;;;;;;1.27;0.95;;;;;;;9.98;87.81;90779.16;4984915;28;20535;-91
2021/08/29 07:14:54;;;;;;;1.17;0.70;;;;;;;10.03;87.58;90776.34;4986488;28;20037;-91
2021/08/29 07:17:36;;;;;;;1.30;0.77;;;;;;;10.03;87.73;90776.34;5002622;28;20041;-90
2021/08/29 07:20:10;;;;;;;1.42;0.50;;;;;;;10.13;87.50;90777.72;4987287;28;20029;-91
2021/08/29 07:22:44;;;;;;;1.27;0.60;;;;;;;10.22;86.55;90783.56;4987721;28;20032;-92
2021/08/29 07:25:25;;;;;;;1.30;0.80;;;;;;;10.34;86.97;90777.59;5005135;28;20502;-89
2021/08/29 07:28:26;;;;;;;2.92;0.60;;;;;;;10.11;89.03;90773.94;5005883;28;20045;-93
2021/08/29 07:31:04;;;;;;;0.98;0.50;;;;;;;10.36;86.93;90767.63;5005918;28;20051;-93
2021/08/29 07:33:31;;;;;;;0.63;0.45;;;;;;;10.16;87.15;90769.25;5024226;28;20036;-91
2021/08/29 07:36:08;;;;;;;0.70;0.35;;;;;;;10.18;88.28;90776.75;5007172;28;20037;-92
2021/08/29 07:38:42;;;;;;;0.40;0.30;;;;;;;10.47;87.29;90773.88;5006044;28;20029;-91
2021/08/29 07:41:18;;;;;;;0.40;0.20;;;;;;;10.41;86.18;90771.84;4992449;28;20028;-90
2021/08/29 07:43:55;;;;;;;0.20;0.10;;;;;;;10.40;87.63;90776.28;4992362;28;20037;-91
2021/08/29 07:46:30;;;;;;;0.30;0.22;;;;;;;10.42;87.33;90783.78;4991304;28;20057;-91
2021/08/29 07:49:08;;;;;;;0.15;0.15;;;;;;;10.43;86.90;90778.25;4990145;28;20120;-90
2021/08/29 07:51:43;;;;;;;0.20;0.10;;;;;;;10.63;85.73;90770.56;4987461;28;20087;-93
2021/08/29 07:54:13;;;;;;;0.10;0.10;;;;;;;10.53;87.13;90767.38;4988909;28;20090;-92
2021/08/29 07:56:45;;;;;;;0.10;0.03;;;;;;;10.63;87.35;90770.56;5001651;28;20030;-91
2021/08/29 07:59:17;;;;;;;0.22;0.10;;;;;;;10.70;86.34;90776.72;4986598;28;20112;-92
2021/08/29 08:01:44;;;;;;;2.28;1.02;;;;;;;10.55;86.11;90774.09;5001497;28;20091;-92
2021/08/29 08:04:20;;;;;;;6.78;3.53;;;;;;;10.55;87.34;90774.09;5002220;28;20053;-92
2021/08/29 08:06:46;;;;;;;2.53;0.90;;;;;;;10.71;86.37;90778.28;5005041;28;20114;-92
2021/08/29 08:09:21;;;;;;;0.30;0.20;;;;;;;10.53;85.19;90772.56;4988052;28;20117;-90
2021/08/29 08:11:52;;;;;;;0.70;0.47;;;;;;;10.48;86.91;90785.81;5005042;28;20033;-91
2021/08/29 08:14:26;;;;;;;0.10;0.10;;;;;;;10.53;86.93;90777.03;4987917;28;20033;-91
2021/08/29 08:17:03;;;;;;;0.80;0.40;;;;;;;10.49;87.74;90782.16;4986476;28;20032;-91
2021/08/29 08:19:34;;;;;;;1.70;0.75;;;;;;;10.55;86.82;90780.06;4985101;28;20080;-90
2021/08/29 08:22:08;;;;;;;1.15;0.70;;;;;;;10.45;87.37;90786.47;5000721;28;20026;-91
2021/08/29 08:24:41;;;;;;;1.40;0.80;;;;;;;10.48;87.30;90785.81;4988994;28;20029;-94
2021/08/29 08:27:14;;;;;;;2.15;1.23;;;;;;;10.40;88.92;90786.72;5030142;28;20037;-91
2021/08/29 08:29:49;;;;;;;2.25;1.10;;;;;;;10.70;88.35;90786.41;4985547;28;20489;-91
2021/08/29 08:32:26;;;;;;;4.35;2.08;;;;;;;10.36;88.21;90788.47;4985285;28;20029;-91
2021/08/29 08:35:05;;;;;;;5.22;2.83;;;;;;;10.13;88.25;90789.97;4986224;28;20379;-91
2021/08/29 08:37:37;;;;;;;4.47;2.60;;;;;;;10.01;89.58;90793.38;4985879;28;20021;-91
2021/08/29 08:40:14;;;;;;;6.40;3.38;;;;;;;10.06;89.80;90790.53;5002006;28;20397;-91
2021/08/29 08:42:50;;;;;;;6.35;3.15;;;;;;;10.24;89.25;90793.66;4986111;28;20048;-91
2021/08/29 08:45:24;;;;;;;5.55;3.08;;;;;;;10.12;88.80;90794.44;4987226;28;20021;-92
2021/08/29 08:47:59;;;;;;;4.55;2.28;;;;;;;9.93;89.47;90787.19;4986606;28;20025;-90
2021/08/29 08:50:37;;;;;;;3.45;2.25;;;;;;;10.16;89.15;90787.47;5002340;28;20456;-92
2021/08/29 08:53:04;;;;;;;4.45;2.40;;;;;;;10.25;88.79;90789.97;5000283;28;20053;-91
2021/08/29 08:55:38;;;;;;;3.90;2.13;;;;;;;10.42;88.68;90792.34;4986834;28;20021;-92
2021/08/29 08:58:04;;;;;;;;;;;;;;;10.62;86.96;90790.66;4985973;28;20112;-91
2021/08/29 09:00:33;;;;;;;1.90;1.00;;;;;;;10.70;86.77;90791.63;5000769;28;19951;-91
2021/08/29 09:03:02;;;;;;;1.83;1.05;;;;;;;10.52;87.31;90789.28;4985059;28;20021;-91
2021/08/29 09:05:40;;;;;;;2.33;1.20;;;;;;;10.76;88.58;90791.06;5001477;28;20064;-91
2021/08/29 09:08:07;;;;;;;1.52;1.00;;;;;;;10.83;88.32;90793.09;5001955;28;20033;-90
2021/08/29 09:10:38;;;;;;;1.48;0.80;;;;;;;10.77;87.25;90797.78;5000312;28;20036;-91
2021/08/29 09:13:06;;;;;;;1.17;0.60;;;;;;;10.84;85.72;90796.47;5003506;28;20037;-92
2021/08/29 09:15:38;;;;;;;1.13;0.60;;;;;;;10.96;85.23;90794.56;4986309;28;20091;-91
2021/08/29 09:18:15;;;;;;;1.95;0.70;;;;;;;10.83;87.71;90798.31;5012613;28;20029;-91
2021/08/29 09:20:50;;;;;;;2.38;0.40;;;;;;;11.01;86.82;90794.31;4987160;28;20551;-92
2021/08/29 09:23:19;;;;;;;1.00;0.35;;;;;;;10.99;84.83;90796.53;4985674;28;20026;-91
2021/08/29 09:25:53;;;;;;;1.20;0.70;;;;;;;10.82;86.68;90793.44;4985407;28;20037;-92
2021/08/29 09:28:25;;;;;;;0.98;0.60;;;;;;;11.21;87.38;90804.91;5016570;28;20112;-91
2021/08/29 09:30:57;;;;;;;1.10;0.50;;;;;;;11.14;87.41;90807.31;5015926;28;20099;-91
2021/08/29 09:33:30;;;;;;;1.77;0.90;;;;;;;10.88;86.69;90792.84;5016309;28;20029;-91
2021/08/29 09:35:59;;;;;;;4.40;2.55;;;;;;;11.27;85.37;90797.56;5000150;28;20021;-91
2021/08/29 09:38:26;;;;;;;1.95;1.02;;;;;;;11.31;84.03;90804.41;5017371;28;20382;-91
2021/08/29 09:40:54;;;;;;;2.75;1.55;;;;;;;11.06;86.54;90798.56;5016489;28;20021;-92
2021/08/29 09:43:35;;;;;;;2.05;1.00;;;;;;;11.13;84.81;90805.78;5016543;28;20033;-92
2021/08/29 09:46:12;;;;;;;2.20;0.85;;;;;;;11.39;84.19;90800.88;5016471;28;20049;-90
2021/08/29 09:48:42;;;;;;;1.48;0.90;;;;;;;11.23;84.38;90793.03;5016349;28;20021;-90
2021/08/29 09:51:15;;;;;;;1.55;0.75;;;;;;;11.36;86.74;90796.34;5015304;28;20394;-92
2021/08/29 09:53:42;;;;;;;1.02;0.50;;;;;;;11.54;83.94;90798.63;5015118;28;20053;-91
2021/08/29 09:56:20;;;;;;;0.75;0.50;;;;;;;11.59;85.10;90801.75;5015532;28;20109;-91
2021/08/29 09:58:52;;;;;;;0.98;0.60;;;;;;;11.54;84.20;90796.00;4995174;28;20120;-91
2021/08/29 10:01:21;;;;;;;1.38;0.73;;;;;;;11.89;86.73;90807.34;4995258;28;20026;-91
2021/08/29 10:03:55;;;;;;;2.05;0.50;;;;;;;11.67;83.17;90800.81;5011696;28;20029;-91
2021/08/29 10:06:29;;;;;;;1.00;0.57;;;;;;;11.60;83.03;90805.13;4995687;28;20030;-91
2021/08/29 10:09:03;;;;;;;0.50;0.30;;;;;;;11.70;85.29;90809.84;4995366;28;20026;-91
2021/08/29 10:11:30;;;;;;;0.40;0.30;;;;;;;11.41;82.52;90806.53;5050882;22;20681;-86
2021/08/29 10:13:59;;;;;;;0.57;0.30;;;;;;;11.73;83.99;90798.69;5024030;28;20451;-88
2021/08/29 10:16:30;;;;;;;0.57;0.40;;;;;;;11.61;83.72;90802.16;5039906;28;20016;-86
2021/08/29 10:18:57;;;;;;;0.80;0.45;;;;;;;11.77;83.75;90794.34;5040451;28;20074;-86
2021/08/29 10:21:24;;;;;;;0.50;0.30;;;;;;;11.86;82.16;90797.56;5023212;28;20031;-85
2021/08/29 10:23:54;;;;;;;0.35;0.22;;;;;;;11.70;82.91;90804.63;5040418;28;20028;-87
2021/08/29 10:26:28;;;;;;;0.88;0.50;;;;;;;11.49;83.41;90800.41;5013421;28;20527;-86
2021/08/29 10:29:04;;;;;;;0.50;0.30;;;;;;;11.57;84.10;90800.56;5033222;28;20033;-87
2021/08/29 10:31:44;;;;;;;0.30;0.30;;;;;;;11.83;82.60;90808.66;5037086;28;20030;-87
2021/08/29 10:34:21;;;;;;;0.50;0.40;;;;;;;11.71;81.79;90806.88;5022959;28;20116;-85
2021/08/29 10:36:56;;;;;;;0.60;0.38;;;;;;;11.61;82.77;90811.84;5021998;28;20021;-86
2021/08/29 10:39:29;;;;;;;0.40;0.30;;;;;;;11.76;81.62;90807.72;5021342;28;20029;-85
2021/08/29 10:42:02;;;;;;;0.55;0.30;;;;;;;11.54;83.09;90806.47;5020267;28;20034;-86
2021/08/29 10:44:38;;;;;;;0.97;0.30;;;;;;;11.89;83.69;90806.56;5054751;28;20111;-86
2021/08/29 10:47:13;;;;;;;0.65;0.35;;;;;;;12.44;79.52;90810.81;5040129;28;20769;-88
2021/08/29 10:49:48;;;;;;;1.05;0.30;;;;;;;12.24;81.79;90809.25;5044233;28;20025;-84
2021/08/29 10:52:16;;;;;;;0.40;0.20;;;;;;;12.32;83.15;90808.28;5009334;28;20119;-85
2021/08/29 10:55:04;;;;;;;0.30;0.20;;;;;;;12.34;80.93;90800.88;5017448;28;20120;-85
2021/08/29 10:57:41;;;;;;;0.30;0.20;;;;;;;12.11;80.11;90798.13;5006841;28;20044;-85
2021/08/29 11:00:12;;;;;;;0.20;0.10;;;;;;;12.14;80.54;90807.16;5024649;28;20029;-84
2021/08/29 11:02:47;;;;;;;3.40;0.22;;;;;;;12.06;79.59;90808.84;5022572;28;20037;-83
2021/08/29 11:05:38;;;;;;;0.10;0.10;;;;;;;11.88;82.68;90803.22;5023268;28;20057;-86
2021/08/29 11:08:32;;;;;;;0.63;0.20;;;;;;;11.86;83.78;90808.00;5041761;28;20025;-86
2021/08/29 11:11:12;;;;;;;0.55;0.22;;;;;;;11.91;83.00;90799.94;5039441;28;20063;-86
2021/08/29 11:13:44;;;;;;;0.50;0.30;;;;;;;11.91;84.44;90805.16;5024331;28;20029;-86
2021/08/29 11:16:17;;;;;;;1.20;0.47;;;;;;;12.10;84.50;90801.09;5006923;28;20484;-86
2021/08/29 11:19:13;;;;;;;1.05;0.50;;;;;;;12.21;83.05;90796.84;5027674;28;20017;-85
2021/08/29 11:21:42;;;;;;;1.33;0.70;;;;;;;12.26;82.97;90814.88;5039990;28;20032;-86
2021/08/29 11:24:10;;;;;;;1.35;0.73;;;;;;;12.44;80.56;90810.06;5038601;28;20057;-86
2021/08/29 11:26:42;;;;;;;1.55;0.80;;;;;;;12.42;83.25;90807.75;5043407;28;20020;-85
2021/08/29 11:29:43;;;;;;;2.13;0.80;;;;;;;12.27;82.47;90805.94;5039924;28;20028;-85
2021/08/29 11:32:38;;;;;;;1.50;0.80;;;;;;;12.11;81.98;90807.81;5056913;28;20104;-85
2021/08/29 11:35:14;;;;;;;1.77;1.00;;;;;;;11.83;83.53;90821.69;5026313;28;20632;-84
2021/08/29 11:38:04;;;;;;;1.33;0.77;;;;;;;11.82;83.39;90817.59;5056157;28;20021;-86
2021/08/29 11:40:57;;;;;;;3.40;1.00;;;;;;;12.04;83.48;90813.63;5038829;28;20549;-85
2021/08/29 11:43:48;;;;;;;2.03;0.90;;;;;;;11.73;81.56;90809.16;5044147;28;20024;-85
2021/08/29 11:46:30;;;;;;;1.50;0.85;;;;;;;11.96;83.51;90810.09;5043821;28;20028;-86
2021/08/29 11:49:08;;;;;;;1.40;0.90;;;;;;;11.83;81.56;90807.88;5027207;28;20029;-87
2021/08/29 11:51:46;;;;;;;1.60;1.00;;;;;;;11.83;83.77;90803.41;5012346;28;20440;-86
2021/08/29 11:54:21;;;;;;;2.20;1.10;;;;;;;11.71;82.37;90819.19;5006463;28;20485;-85
2021/08/29 11:56:52;;;;;;;1.35;0.88;;;;;;;11.77;83.38;90815.22;5034546;28;20028;-86
2021/08/29 11:59:37;;;;;;;1.20;0.88;;;;;;;11.77;84.66;90810.00;5057216;28;20040;-85
2021/08/29 12:02:12;;;;;;;1.42;0.90;;;;;;;11.58;83.74;90817.72;5024481;28;20443;-86
2021/08/29 12:04:45;;;;;;;2.22;0.77;;;;;;;11.61;81.56;90823.03;5025186;28;20040;-85
2021/08/29 12:07:12;;;;;;;0.98;0.70;;;;;;;11.50;82.90;90801.16;5024869;28;20423;-86
2021/08/29 12:09:43;;;;;;;3.55;0.60;;;;;;;11.77;83.48;90820.47;5040314;28;20063;-85
2021/08/29 12:12:22;;;;;;;1.13;0.47;;;;;;;11.76;84.49;90818.91;5057767;28;20025;-85
2021/08/29 12:15:00;;;;;;;0.77;0.40;;;;;;;11.82;82.79;90812.34;5024766;28;20028;-85
2021/08/29 12:17:35;;;;;;;0.70;0.38;;;;;;;12.00;81.59;90817.28;5025227;28;20127;-85
2021/08/29 12:20:12;;;;;;;0.60;0.30;;;;;;;12.17;81.34;90822.13;5010387;28;20029;-85
2021/08/29 12:22:39;;;;;;;0.30;0.20;;;;;;;12.16;82.39;90816.16;5048122;28;20088;-88